createdAt,value
2015-09-29T00:00:00.104Z,1028.1
2015-09-29T00:01:00.045Z,1028.2
2015-09-29T00:02:00.017Z,1028.2
2015-09-29T00:02:59.940Z,1028.3
2015-09-29T00:03:59.897Z,1028.3
2015-09-29T00:04:59.852Z,1028.3
2015-09-29T00:05:59.778Z,1028.2
2015-09-29T00:06:59.921Z,1028.1
2015-09-29T00:07:59.689Z,1028.1
2015-09-29T00:08:59.629Z,1028.2
2015-09-29T00:09:59.553Z,1028.3
2015-09-29T00:10:59.526Z,1028.2
2015-09-29T00:11:59.465Z,1028.2
2015-09-29T00:12:59.403Z,1028.3
2015-09-29T00:13:59.359Z,1028.2
2015-09-29T00:14:59.283Z,1028.2
2015-09-29T00:15:59.239Z,1028.2
2015-09-29T00:16:59.195Z,1028.2
2015-09-29T00:17:58.385Z,1028.2
2015-09-29T00:18:59.091Z,1028.1
2015-09-29T00:19:59.031Z,1028.3
2015-09-29T00:20:58.986Z,1028.2
2015-09-29T00:21:58.911Z,1028.3
2015-09-29T00:22:58.867Z,1028.3
2015-09-29T00:23:58.824Z,1028.2
2015-09-29T00:24:58.748Z,1028.3
2015-09-29T00:25:58.705Z,1028.2
2015-09-29T00:26:58.660Z,1028.3
2015-09-29T00:27:58.600Z,1028.3
2015-09-29T00:28:58.556Z,1028.3
2015-09-29T00:29:58.730Z,1028.3
2015-09-29T00:30:58.452Z,1028.3
2015-09-29T00:31:58.377Z,1028.3
2015-09-29T00:32:58.349Z,1028.3
2015-09-29T00:33:58.508Z,1028.4
2015-09-29T00:34:58.230Z,1028.3
2015-09-29T00:35:58.169Z,1028.3
2015-09-29T00:36:58.124Z,1028.2
2015-09-29T00:37:58.066Z,1028.3
2015-09-29T00:38:58.005Z,1028.3
2015-09-29T00:39:57.961Z,1028.4
2015-09-29T00:40:57.902Z,1028.3
2015-09-29T00:41:58.092Z,1028.3
2015-09-29T00:42:57.813Z,1028.4
2015-09-29T00:43:57.738Z,1028.3
2015-09-29T00:44:57.693Z,1028
2015-09-29T00:45:57.650Z,1028.3
2015-09-29T00:46:57.808Z,1028.3
2015-09-29T00:47:57.530Z,1028.4
2015-09-29T00:48:57.501Z,1028.2
2015-09-29T00:49:57.427Z,1028.2
2015-09-29T00:50:57.366Z,1028.2
2015-09-29T00:51:57.338Z,1028.2
2015-09-29T00:52:57.263Z,1028.2
2015-09-29T00:53:57.218Z,1028.2
2015-09-29T00:54:57.174Z,1028.3
2015-09-29T00:55:57.099Z,1028.1
2015-09-29T00:56:57.054Z,1028.2
2015-09-29T00:57:56.995Z,1028.1
2015-09-29T00:58:56.934Z,1028.2
2015-09-29T00:59:56.890Z,1028.2
2015-09-29T01:00:56.846Z,1028.2
2015-09-29T01:01:56.787Z,1028.2
2015-09-29T01:02:56.727Z,1028.1
2015-09-29T01:03:56.681Z,1028.1
2015-09-29T01:04:56.621Z,1028.1
2015-09-29T01:05:56.561Z,1028.2
2015-09-29T01:06:56.532Z,1028.1
2015-09-29T01:07:56.456Z,1028.1
2015-09-29T01:08:56.397Z,1028.2
2015-09-29T01:09:56.353Z,1028
2015-09-29T01:10:56.293Z,1028.1
2015-09-29T01:11:56.484Z,1028.1
2015-09-29T01:12:56.190Z,1028
2015-09-29T01:13:56.129Z,1028.1
2015-09-29T01:14:56.273Z,1028.1
2015-09-29T01:15:55.869Z,1028.1
2015-09-29T01:16:55.966Z,1027.9
2015-09-29T01:17:55.922Z,1028.1
2015-09-29T01:18:55.862Z,1028
2015-09-29T01:19:55.818Z,1028.1
2015-09-29T01:20:55.758Z,1028.1
2015-09-29T01:21:55.698Z,1028.1
2015-09-29T01:22:55.654Z,1028.1
2015-09-29T01:23:55.798Z,1028.2
2015-09-29T01:24:55.738Z,1028.2
2015-09-29T01:25:55.506Z,1028.2
2015-09-29T01:26:55.634Z,1028.3
2015-09-29T01:27:55.386Z,1028.2
2015-09-29T01:28:55.328Z,1028.3
2015-09-29T01:29:55.283Z,1028.3
2015-09-29T01:30:55.223Z,1028.3
2015-09-29T01:31:55.179Z,1028.3
2015-09-29T01:32:55.119Z,1028.3
2015-09-29T01:33:55.059Z,1028.3
2015-09-29T01:34:55.031Z,1028.3
2015-09-29T01:35:54.956Z,1028.2
2015-09-29T01:36:54.897Z,1028.3
2015-09-29T01:37:54.884Z,1028.4
2015-09-29T01:38:54.792Z,1028.3
2015-09-29T01:39:54.576Z,1028.3
2015-09-29T01:40:54.533Z,1028.3
2015-09-29T01:41:54.628Z,1028.2
2015-09-29T01:42:54.584Z,1028.3
2015-09-29T01:43:54.541Z,1028.3
2015-09-29T01:44:54.480Z,1028.3
2015-09-29T01:45:54.421Z,1028.3
2015-09-29T01:46:54.392Z,1028.2
2015-09-29T01:47:54.348Z,1028.2
2015-09-29T01:48:54.272Z,1028.3
2015-09-29T01:49:54.228Z,1028.2
2015-09-29T01:50:54.166Z,1028.3
2015-09-29T01:51:54.106Z,1028.3
2015-09-29T01:52:54.046Z,1028.4
2015-09-29T01:53:54.018Z,1028.3
2015-09-29T01:54:53.396Z,1028.4
2015-09-29T01:55:53.883Z,1028.3
2015-09-29T01:56:53.838Z,1028.3
2015-09-29T01:57:53.779Z,1028.4
2015-09-29T01:58:53.735Z,1028.3
2015-09-29T01:59:53.691Z,1028.3
2015-09-29T02:00:53.616Z,1028.3
2015-09-29T02:01:53.555Z,1028.3
2015-09-29T02:02:53.527Z,1028.2
2015-09-29T02:03:53.468Z,1028.2
2015-09-29T02:04:53.610Z,1028.2
2015-09-29T02:05:53.363Z,1028.3
2015-09-29T02:06:53.319Z,1028.3
2015-09-29T02:07:53.244Z,1028.3
2015-09-29T02:08:53.199Z,1028.3
2015-09-29T02:09:53.155Z,1028.3
2015-09-29T02:10:53.096Z,1028.3
2015-09-29T02:11:53.035Z,1028.4
2015-09-29T02:12:52.977Z,1028.3
2015-09-29T02:13:52.932Z,1028.3
2015-09-29T02:14:52.873Z,1028.3
2015-09-29T02:15:52.829Z,1028.3
2015-09-29T02:16:52.768Z,1028.4
2015-09-29T02:17:52.724Z,1028.4
2015-09-29T02:18:52.680Z,1028.4
2015-09-29T02:19:52.604Z,1028.4
2015-09-29T02:20:52.560Z,1028.3
2015-09-29T02:21:52.517Z,1028.3
2015-09-29T02:22:52.441Z,1028.3
2015-09-29T02:23:52.397Z,1028.3
2015-09-29T02:24:52.353Z,1028.4
2015-09-29T02:25:52.279Z,1028.4
2015-09-29T02:26:52.234Z,1028.4
2015-09-29T02:27:52.189Z,1028.5
2015-09-29T02:28:52.130Z,1028.4
2015-09-29T02:29:52.273Z,1028.3
2015-09-29T02:30:52.213Z,1028.3
2015-09-29T02:31:51.966Z,1028.5
2015-09-29T02:32:51.922Z,1028.3
2015-09-29T02:33:51.862Z,1028.4
2015-09-29T02:34:51.802Z,1028.4
2015-09-29T02:35:51.742Z,1028.4
2015-09-29T02:36:51.901Z,1028.4
2015-09-29T02:37:51.654Z,1028.4
2015-09-29T02:38:51.798Z,1028.5
2015-09-29T02:39:51.532Z,1028.4
2015-09-29T02:40:51.473Z,1028.4
2015-09-29T02:41:51.428Z,1028.3
2015-09-29T02:42:51.383Z,1028.4
2015-09-29T02:43:51.309Z,1028.4
2015-09-29T02:44:51.264Z,1028.5
2015-09-29T02:45:51.220Z,1028.3
2015-09-29T02:46:51.160Z,1028.3
2015-09-29T02:47:51.101Z,1028.4
2015-09-29T02:48:51.056Z,1028.5
2015-09-29T02:49:50.996Z,1028.5
2015-09-29T02:50:51.139Z,1028.4
2015-09-29T02:51:50.893Z,1028.4
2015-09-29T02:52:50.833Z,1028.3
2015-09-29T02:53:50.772Z,1028.3
2015-09-29T02:54:50.729Z,1028.3
2015-09-29T02:55:50.669Z,1028.5
2015-09-29T02:56:50.610Z,1028.6
2015-09-29T02:57:50.566Z,1028.6
2015-09-29T02:58:50.506Z,1028.5
2015-09-29T02:59:50.649Z,1028.6
2015-09-29T03:00:50.402Z,1028.6
2015-09-29T03:01:50.342Z,1028.5
2015-09-29T03:02:50.486Z,1028.5
2015-09-29T03:03:50.239Z,1028.6
2015-09-29T03:04:50.178Z,1028.5
2015-09-29T03:05:50.135Z,1028.5
2015-09-29T03:06:50.091Z,1028.6
2015-09-29T03:07:50.030Z,1028.6
2015-09-29T03:08:49.955Z,1028.4
2015-09-29T03:09:49.910Z,1028.5
2015-09-29T03:10:49.866Z,1028.5
2015-09-29T03:11:49.808Z,1028.5
2015-09-29T03:12:49.763Z,1028.5
2015-09-29T03:13:49.703Z,1028.4
2015-09-29T03:14:49.644Z,1028.4
2015-09-29T03:15:49.600Z,1028.4
2015-09-29T03:16:49.555Z,1028.4
2015-09-29T03:17:49.480Z,1028.4
2015-09-29T03:18:49.638Z,1028.3
2015-09-29T03:19:49.376Z,1028.4
2015-09-29T03:20:49.519Z,1028.5
2015-09-29T03:21:49.272Z,1028.5
2015-09-29T03:22:49.213Z,1028.3
2015-09-29T03:23:49.168Z,1028.3
2015-09-29T03:24:49.124Z,1028.4
2015-09-29T03:25:49.048Z,1028.4
2015-09-29T03:26:49.004Z,1028.3
2015-09-29T03:27:48.945Z,1028.4
2015-09-29T03:28:49.134Z,1028.4
2015-09-29T03:29:48.837Z,1028.3
2015-09-29T03:30:48.793Z,1028.3
2015-09-29T03:31:48.890Z,1028.4
2015-09-29T03:33:48.849Z,1028.3
2015-09-29T03:35:02.729Z,1028.4
2015-09-29T03:36:03.529Z,1028.4
2015-09-29T03:37:03.157Z,1028.3
2015-09-29T03:38:03.004Z,1028.2
2015-09-29T03:39:04.053Z,1028.4
2015-09-29T03:40:03.055Z,1028.3
2015-09-29T03:40:48.742Z,1028.3
2015-09-29T03:41:48.215Z,1028.4
2015-09-29T03:42:48.780Z,1028.4
2015-09-29T03:43:48.329Z,1028.3
2015-09-29T03:45:48.398Z,1028.3
2015-09-29T03:47:03.837Z,1028.4
2015-09-29T03:48:16.375Z,1028.5
2015-09-29T03:48:48.140Z,1028.3
2015-09-29T03:50:03.220Z,1028.3
2015-09-29T03:50:47.740Z,1028.4
2015-09-29T03:51:48.742Z,1028.4
2015-09-29T03:52:47.745Z,1028.5
2015-09-29T03:53:48.857Z,1028.4
2015-09-29T03:56:01.847Z,1028.4
2015-09-29T03:56:49.256Z,1028.4
2015-09-29T03:57:47.602Z,1028.6
2015-09-29T03:58:47.761Z,1028.5
2015-09-29T04:00:47.173Z,1028.6
2015-09-29T04:01:47.144Z,1028.6
2015-09-29T04:02:46.928Z,1028.5
2015-09-29T04:03:47.056Z,1028.6
2015-09-29T04:04:47.200Z,1028.7
2015-09-29T04:05:46.922Z,1028.7
2015-09-29T04:06:46.878Z,1028.6
2015-09-29T04:07:46.817Z,1028.7
2015-09-29T04:08:46.758Z,1028.7
2015-09-29T04:09:46.713Z,1028.6
2015-09-29T04:10:46.638Z,1028.7
2015-09-29T04:11:46.781Z,1028.6
2015-09-29T04:12:46.533Z,1028.7
2015-09-29T04:13:46.474Z,1028.6
2015-09-29T04:14:46.430Z,1028.7
2015-09-29T04:15:46.386Z,1028.6
2015-09-29T04:16:46.544Z,1028.6
2015-09-29T04:17:46.266Z,1028.6
2015-09-29T04:18:46.222Z,1028.6
2015-09-29T04:19:46.160Z,1028.6
2015-09-29T04:20:46.100Z,1028.5
2015-09-29T04:21:46.056Z,1028.6
2015-09-29T04:22:46.012Z,1028.5
2015-09-29T04:23:45.952Z,1028.5
2015-09-29T04:24:45.877Z,1028.6
2015-09-29T04:25:45.849Z,1028.6
2015-09-29T04:26:45.772Z,1028.6
2015-09-29T04:27:45.744Z,1028.5
2015-09-29T04:28:45.872Z,1028.5
2015-09-29T04:29:45.625Z,1028.6
2015-09-29T04:30:45.565Z,1028.5
2015-09-29T04:31:45.506Z,1028.6
2015-09-29T04:32:45.680Z,1028.5
2015-09-29T04:33:45.401Z,1028.6
2015-09-29T04:34:45.342Z,1028.6
2015-09-29T04:35:45.485Z,1028.6
2015-09-29T04:36:45.457Z,1028.6
2015-09-29T04:37:45.396Z,1028.5
2015-09-29T04:38:44.368Z,1028.6
2015-09-29T04:39:45.058Z,1028.7
2015-09-29T04:40:45.030Z,1028.6
2015-09-29T04:41:44.954Z,1028.6
2015-09-29T04:42:44.910Z,1028.7
2015-09-29T04:43:44.851Z,1028.6
2015-09-29T04:44:44.993Z,1028.6
2015-09-29T04:45:44.747Z,1028.6
2015-09-29T04:46:44.687Z,1028.6
2015-09-29T04:47:44.830Z,1028.7
2015-09-29T04:48:44.786Z,1028.6
2015-09-29T04:49:44.523Z,1028.6
2015-09-29T04:50:44.463Z,1028.6
2015-09-29T04:51:44.404Z,1028.6
2015-09-29T04:52:44.219Z,1028.6
2015-09-29T04:53:44.300Z,1028.6
2015-09-29T04:54:44.240Z,1028.6
2015-09-29T04:55:44.321Z,1028.6
2015-09-29T04:56:44.339Z,1028.6
2015-09-29T04:57:44.077Z,1028.6
2015-09-29T04:58:44.048Z,1028.6
2015-09-29T04:59:43.973Z,1028.7
2015-09-29T05:00:44.162Z,1028.7
2015-09-29T05:01:43.869Z,1028.6
2015-09-29T05:02:44.012Z,1028.6
2015-09-29T05:03:43.749Z,1028.6
2015-09-29T05:04:43.705Z,1028.6
2015-09-29T05:05:43.661Z,1028.7
2015-09-29T05:06:43.601Z,1028.6
2015-09-29T05:07:43.525Z,1028.6
2015-09-29T05:08:43.559Z,1028.7
2015-09-29T05:09:43.422Z,1028.8
2015-09-29T05:10:43.362Z,1028.6
2015-09-29T05:11:43.333Z,1028.6
2015-09-29T05:12:43.258Z,1028.6
2015-09-29T05:13:43.195Z,1028.6
2015-09-29T05:14:43.167Z,1028.6
2015-09-29T05:15:43.092Z,1028.7
2015-09-29T05:16:43.031Z,1028.6
2015-09-29T05:17:42.988Z,1028.7
2015-09-29T05:18:42.928Z,1028.7
2015-09-29T05:19:42.869Z,1028.7
2015-09-29T05:20:42.825Z,1028.7
2015-09-29T05:21:42.764Z,1028.7
2015-09-29T05:22:42.719Z,1028.7
2015-09-29T05:23:42.675Z,1028.8
2015-09-29T05:24:42.600Z,1028.7
2015-09-29T05:25:42.775Z,1028.7
2015-09-29T05:26:42.497Z,1028.6
2015-09-29T05:27:42.437Z,1028.9
2015-09-29T05:28:42.377Z,1028.8
2015-09-29T05:29:42.333Z,1028.8
2015-09-29T05:30:42.274Z,1028.7
2015-09-29T05:31:42.417Z,1028.8
2015-09-29T05:32:42.169Z,1028.8
2015-09-29T05:33:41.985Z,1028.8
2015-09-29T05:34:42.285Z,1028.7
2015-09-29T05:35:42.209Z,1028.9
2015-09-29T05:36:41.977Z,1028.8
2015-09-29T05:37:41.121Z,1028.9
2015-09-29T05:38:42.030Z,1028.8
2015-09-29T05:39:41.774Z,1028.7
2015-09-29T05:40:41.952Z,1028.8
2015-09-29T05:41:41.631Z,1028.8
2015-09-29T05:42:41.590Z,1028.8
2015-09-29T05:43:41.503Z,1028.9
2015-09-29T05:44:41.436Z,1028.8
2015-09-29T05:45:41.387Z,1028.8
2015-09-29T05:46:41.355Z,1028.8
2015-09-29T05:47:41.275Z,1028.7
2015-09-29T05:48:41.211Z,1028.7
2015-09-29T05:49:41.165Z,1028.6
2015-09-29T05:50:41.104Z,1028.6
2015-09-29T05:51:41.246Z,1028.7
2015-09-29T05:52:40.997Z,1028.7
2015-09-29T05:53:40.936Z,1028.8
2015-09-29T05:54:41.078Z,1028.7
2015-09-29T05:55:40.831Z,1028.8
2015-09-29T05:56:40.771Z,1028.8
2015-09-29T05:57:40.710Z,1028.7
2015-09-29T05:58:40.650Z,1028.7
2015-09-29T05:59:40.605Z,1028.8
2015-09-29T06:00:40.545Z,1028.7
2015-09-29T06:01:40.501Z,1028.8
2015-09-29T06:02:40.440Z,1028.7
2015-09-29T06:03:40.397Z,1028.8
2015-09-29T06:04:40.337Z,1028.7
2015-09-29T06:05:40.277Z,1028.7
2015-09-29T06:06:40.217Z,1028.6
2015-09-29T06:07:40.157Z,1028.8
2015-09-29T06:08:40.097Z,1028.7
2015-09-29T06:09:40.053Z,1028.7
2015-09-29T06:10:39.991Z,1028.7
2015-09-29T06:11:39.930Z,1028.7
2015-09-29T06:12:39.887Z,1028.7
2015-09-29T06:13:39.859Z,1028.8
2015-09-29T06:14:39.783Z,1028.7
2015-09-29T06:15:39.722Z,1028.8
2015-09-29T06:16:39.694Z,1028.7
2015-09-29T06:17:39.603Z,1028.8
2015-09-29T06:18:39.560Z,1028.8
2015-09-29T06:19:39.515Z,1028.8
2015-09-29T06:20:39.455Z,1028.8
2015-09-29T06:21:39.411Z,1028.8
2015-09-29T06:22:39.352Z,1028.8
2015-09-29T06:23:39.291Z,1028.9
2015-09-29T06:24:39.247Z,1028.8
2015-09-29T06:25:39.204Z,1028.8
2015-09-29T06:26:39.160Z,1028.8
2015-09-29T06:27:39.084Z,1028.8
2015-09-29T06:28:39.041Z,1028.8
2015-09-29T06:29:39.011Z,1028.8
2015-09-29T06:30:38.921Z,1028.9
2015-09-29T06:31:38.126Z,1028.8
2015-09-29T06:32:38.816Z,1028.8
2015-09-29T06:33:38.757Z,1028.7
2015-09-29T06:34:38.713Z,1028.8
2015-09-29T06:35:38.653Z,1028.8
2015-09-29T06:36:38.593Z,1028.9
2015-09-29T06:37:38.565Z,1028.8
2015-09-29T06:38:38.490Z,1028.8
2015-09-29T06:39:38.446Z,1028.8
2015-09-29T06:40:38.401Z,1028.7
2015-09-29T06:41:38.326Z,1028.8
2015-09-29T06:42:38.282Z,1028.8
2015-09-29T06:43:38.222Z,1028.8
2015-09-29T06:44:38.177Z,1028.9
2015-09-29T06:45:38.118Z,1028.7
2015-09-29T06:46:38.073Z,1028.9
2015-09-29T06:47:38.015Z,1028.8
2015-09-29T06:48:37.970Z,1028.9
2015-09-29T06:49:38.113Z,1029
2015-09-29T06:50:37.866Z,1029
2015-09-29T06:51:37.807Z,1028.9
2015-09-29T06:52:37.778Z,1028.8
2015-09-29T06:53:37.687Z,1028.8
2015-09-29T06:54:37.643Z,1028.8
2015-09-29T06:55:37.615Z,1028.9
2015-09-29T06:56:37.539Z,1028.9
2015-09-29T06:57:37.495Z,1028.8
2015-09-29T06:58:37.451Z,1028.9
2015-09-29T06:59:37.376Z,1028.9
2015-09-29T07:00:37.331Z,1029
2015-09-29T07:01:37.287Z,1029
2015-09-29T07:02:37.226Z,1029
2015-09-29T07:03:37.183Z,1028.9
2015-09-29T07:04:37.104Z,1029.1
2015-09-29T07:05:37.061Z,1028.9
2015-09-29T07:06:37.016Z,1028.9
2015-09-29T07:07:36.972Z,1028.8
2015-09-29T07:08:36.897Z,1029
2015-09-29T07:09:36.853Z,1028.8
2015-09-29T07:10:36.809Z,1029
2015-09-29T07:11:36.748Z,1028.9
2015-09-29T07:12:36.689Z,1028.9
2015-09-29T07:13:36.660Z,1028.9
2015-09-29T07:14:36.585Z,1028.9
2015-09-29T07:15:36.525Z,1029
2015-09-29T07:16:36.497Z,1029
2015-09-29T07:17:36.422Z,1029
2015-09-29T07:18:36.378Z,1029.1
2015-09-29T07:19:36.333Z,1029
2015-09-29T07:20:36.273Z,1028.9
2015-09-29T07:21:36.448Z,1029
2015-09-29T07:22:36.185Z,1029
2015-09-29T07:23:36.125Z,1029
2015-09-29T07:24:36.066Z,1029
2015-09-29T07:25:36.022Z,1029.1
2015-09-29T07:26:35.962Z,1029.1
2015-09-29T07:27:35.902Z,1029.1
2015-09-29T07:28:35.858Z,1029
2015-09-29T07:29:36.048Z,1029.1
2015-09-29T07:30:35.754Z,1029
2015-09-29T07:31:35.695Z,1029
2015-09-29T07:32:35.650Z,1029.1
2015-09-29T07:33:35.591Z,1029.2
2015-09-29T07:34:35.608Z,1029.1
2015-09-29T07:35:35.502Z,1029.2
2015-09-29T07:36:35.442Z,1029.2
2015-09-29T07:37:35.382Z,1029.2
2015-09-29T07:38:35.338Z,1029.1
2015-09-29T07:39:35.483Z,1029.1
2015-09-29T07:40:35.219Z,1029
2015-09-29T07:41:35.174Z,1029.1
2015-09-29T07:42:35.319Z,1029.1
2015-09-29T07:43:35.258Z,1029.2
2015-09-29T07:44:35.011Z,1029.2
2015-09-29T07:45:34.998Z,1029.2
2015-09-29T07:46:34.907Z,1029.2
2015-09-29T07:47:34.863Z,1029.2
2015-09-29T07:48:34.819Z,1029.2
2015-09-29T07:49:34.744Z,1029.2
2015-09-29T07:50:34.902Z,1029.3
2015-09-29T07:51:34.652Z,1029.3
2015-09-29T07:52:34.593Z,1029.3
2015-09-29T07:53:34.532Z,1029.3
2015-09-29T07:54:34.520Z,1029.3
2015-09-29T07:55:34.445Z,1029.2
2015-09-29T07:56:34.385Z,1029.3
2015-09-29T07:57:34.341Z,1029.3
2015-09-29T07:58:34.265Z,1029.3
2015-09-29T07:59:34.424Z,1029.3
2015-09-29T08:00:34.177Z,1029.1
2015-09-29T08:01:34.118Z,1029.3
2015-09-29T08:02:34.074Z,1029.2
2015-09-29T08:03:34.029Z,1029.3
2015-09-29T08:04:33.970Z,1029.2
2015-09-29T08:05:34.113Z,1029.2
2015-09-29T08:06:33.865Z,1029.3
2015-09-29T08:07:33.806Z,1029.2
2015-09-29T08:08:33.746Z,1029.2
2015-09-29T08:09:33.717Z,1029.1
2015-09-29T08:10:33.657Z,1029.2
2015-09-29T08:11:32.832Z,1029.2
2015-09-29T08:12:33.538Z,1029.1
2015-09-29T08:13:32.932Z,1028.9
2015-09-29T08:14:33.435Z,1029.1
2015-09-29T08:15:33.390Z,1029.1
2015-09-29T08:16:33.331Z,1029.1
2015-09-29T08:17:33.286Z,1029
2015-09-29T08:18:33.226Z,1029.1
2015-09-29T08:19:33.182Z,1029
2015-09-29T08:20:33.122Z,1029.1
2015-09-29T08:21:33.078Z,1029.1
2015-09-29T08:22:33.253Z,1029.2
2015-09-29T08:23:32.974Z,1029.2
2015-09-29T08:24:32.915Z,1029.1
2015-09-29T08:25:32.870Z,1029.3
2015-09-29T08:26:32.811Z,1029.3
2015-09-29T08:27:32.751Z,1029.2
2015-09-29T08:28:32.723Z,1029.2
2015-09-29T08:29:32.881Z,1029.3
2015-09-29T08:30:32.619Z,1029.3
2015-09-29T08:31:32.559Z,1029.2
2015-09-29T08:32:32.500Z,1029.3
2015-09-29T08:33:32.455Z,1029.3
2015-09-29T08:34:32.411Z,1029.3
2015-09-29T08:35:32.350Z,1029.5
2015-09-29T08:36:32.308Z,1029.5
2015-09-29T08:37:32.248Z,1029.6
2015-09-29T08:38:32.188Z,1029.5
2015-09-29T08:39:32.378Z,1029.6
2015-09-29T08:40:32.099Z,1029.6
2015-09-29T08:41:31.899Z,1029.6
2015-09-29T08:42:31.229Z,1029.7
2015-09-29T08:43:32.155Z,1029.6
2015-09-29T08:44:31.875Z,1029.5
2015-09-29T08:45:31.816Z,1029.5
2015-09-29T08:46:31.771Z,1029.5
2015-09-29T08:47:31.727Z,1029.6
2015-09-29T08:48:31.652Z,1029.6
2015-09-29T08:49:31.624Z,1029.6
2015-09-29T08:50:31.546Z,1029.6
2015-09-29T08:51:31.735Z,1029.5
2015-09-29T08:52:31.457Z,1029.5
2015-09-29T08:53:31.413Z,1029.6
2015-09-29T08:54:31.354Z,1029.8
2015-09-29T08:55:31.153Z,1029.8
2015-09-29T08:56:31.250Z,1029.7
2015-09-29T08:57:31.424Z,1029.7
2015-09-29T08:58:31.130Z,1029.7
2015-09-29T08:59:31.085Z,1029.9
2015-09-29T09:00:31.026Z,1029.6
2015-09-29T09:01:30.966Z,1029.7
2015-09-29T09:02:30.937Z,1029.6
2015-09-29T09:03:30.862Z,1029.8
2015-09-29T09:04:30.818Z,1029.6
2015-09-29T09:05:30.758Z,1029.8
2015-09-29T09:06:30.714Z,1029.7
2015-09-29T09:07:30.701Z,1029.9
2015-09-29T09:08:30.610Z,1029.6
2015-09-29T09:09:30.582Z,1029.7
2015-09-29T09:10:30.506Z,1029.8
2015-09-29T09:11:30.462Z,1029.8
2015-09-29T09:12:30.417Z,1029.7
2015-09-29T09:13:30.358Z,1029.7
2015-09-29T09:14:30.298Z,1029.6
2015-09-29T09:15:30.270Z,1029.7
2015-09-29T09:16:30.398Z,1029.6
2015-09-29T09:17:30.150Z,1029.7
2015-09-29T09:18:30.122Z,1029.6
2015-09-29T09:19:30.250Z,1029.6
2015-09-29T09:20:30.003Z,1029.6
2015-09-29T09:21:29.959Z,1029.5
2015-09-29T09:22:29.133Z,1029.7
2015-09-29T09:23:29.839Z,1029.5
2015-09-29T09:24:29.795Z,1029.6
2015-09-29T09:25:29.751Z,1029.6
2015-09-29T09:26:29.675Z,1029.5
2015-09-29T09:27:29.647Z,1029.4
2015-09-29T09:28:29.587Z,1029.7
2015-09-29T09:29:29.528Z,1029.5
2015-09-29T09:30:29.483Z,1029.5
2015-09-29T09:31:28.673Z,1029.5
2015-09-29T09:32:29.364Z,1029.5
2015-09-29T09:33:29.336Z,1029.7
2015-09-29T09:34:29.291Z,1029.5
2015-09-29T09:35:29.216Z,1029.5
2015-09-29T09:36:29.172Z,1029.6
2015-09-29T09:37:29.143Z,1029.6
2015-09-29T09:38:29.302Z,1029.6
2015-09-29T09:39:29.008Z,1029.6
2015-09-29T09:40:28.964Z,1029.5
2015-09-29T09:41:28.933Z,1029.5
2015-09-29T09:42:28.700Z,1029.6
2015-09-29T09:43:28.813Z,1029.5
2015-09-29T09:44:28.769Z,1029.4
2015-09-29T09:45:28.708Z,1029.6
2015-09-29T09:46:28.869Z,1029.6
2015-09-29T09:47:28.589Z,1029.4
2015-09-29T09:48:28.405Z,1029.5
2015-09-29T09:49:28.516Z,1029.5
2015-09-29T09:50:28.457Z,1029.5
2015-09-29T09:51:28.397Z,1029.5
2015-09-29T09:52:28.353Z,1029.5
2015-09-29T09:53:28.309Z,1029.6
2015-09-29T09:54:28.249Z,1029.5
2015-09-29T09:55:28.189Z,1029.6
2015-09-29T09:56:28.146Z,1029.5
2015-09-29T09:57:27.366Z,1029.6
2015-09-29T09:58:28.276Z,1029.5
2015-09-29T09:59:27.982Z,1029.5
2015-09-29T10:00:27.953Z,1029.4
2015-09-29T10:01:28.128Z,1029.4
2015-09-29T10:02:28.037Z,1029.4
2015-09-29T10:03:27.790Z,1029.4
2015-09-29T10:04:27.730Z,1029.4
2015-09-29T10:05:27.670Z,1029.4
2015-09-29T10:06:27.641Z,1029.5
2015-09-29T10:07:27.566Z,1029.3
2015-09-29T10:08:27.522Z,1029.2
2015-09-29T10:09:27.477Z,1029.3
2015-09-29T10:10:27.434Z,1029.3
2015-09-29T10:11:27.374Z,1029.2
2015-09-29T10:12:27.330Z,1029.2
2015-09-29T10:13:27.302Z,1029.3
2015-09-29T10:14:27.210Z,1029.3
2015-09-29T10:15:27.166Z,1029.3
2015-09-29T10:16:27.122Z,1029.2
2015-09-29T10:17:27.141Z,1029.2
2015-09-29T10:18:27.018Z,1029.2
2015-09-29T10:19:26.990Z,1029.3
2015-09-29T10:20:26.915Z,1029.2
2015-09-29T10:21:26.871Z,1029.1
2015-09-29T10:22:26.826Z,1029.3
2015-09-29T10:23:26.766Z,1029.2
2015-09-29T10:24:26.706Z,1029.2
2015-09-29T10:25:26.662Z,1029.3
2015-09-29T10:26:26.618Z,1029.3
2015-09-29T10:27:26.559Z,1029.1
2015-09-29T10:28:26.515Z,1029.2
2015-09-29T10:29:26.689Z,1029.2
2015-09-29T10:30:26.395Z,1029.1
2015-09-29T10:31:26.351Z,1029
2015-09-29T10:32:26.306Z,1029.1
2015-09-29T10:33:26.481Z,1029
2015-09-29T10:34:26.200Z,1029.1
2015-09-29T10:35:26.156Z,1029
2015-09-29T10:36:26.096Z,1028.9
2015-09-29T10:37:26.051Z,1029
2015-09-29T10:38:26.008Z,1029
2015-09-29T10:39:25.947Z,1029
2015-09-29T10:40:25.888Z,1029.1
2015-09-29T10:41:25.859Z,1028.9
2015-09-29T10:42:25.784Z,1029.1
2015-09-29T10:43:25.724Z,1029
2015-09-29T10:44:25.696Z,1028.8
2015-09-29T10:45:25.637Z,1028.8
2015-09-29T10:46:25.592Z,1029.1
2015-09-29T10:47:25.548Z,1028.9
2015-09-29T10:48:25.489Z,1028.9
2015-09-29T10:49:25.428Z,1029.1
2015-09-29T10:50:25.384Z,1028.9
2015-09-29T10:51:25.324Z,1028.9
2015-09-29T10:52:25.514Z,1029.1
2015-09-29T10:53:25.220Z,1028.9
2015-09-29T10:54:25.176Z,1028.9
2015-09-29T10:55:25.132Z,1029.1
2015-09-29T10:56:25.073Z,1029.1
2015-09-29T10:57:25.028Z,1029.1
2015-09-29T10:58:25.203Z,1029
2015-09-29T10:59:25.143Z,1029
2015-09-29T11:00:24.864Z,1029
2015-09-29T11:01:25.039Z,1029
2015-09-29T11:02:24.963Z,1028.9
2015-09-29T11:03:24.717Z,1029
2015-09-29T11:04:24.658Z,1028.9
2015-09-29T11:05:24.628Z,1028.8
2015-09-29T11:06:24.788Z,1028.8
2015-09-29T11:07:24.509Z,1028.8
2015-09-29T11:08:24.449Z,1028.8
2015-09-29T11:09:24.405Z,1028.8
2015-09-29T11:10:24.346Z,1028.6
2015-09-29T11:11:24.286Z,1028.7
2015-09-29T11:12:24.257Z,1028.8
2015-09-29T11:13:24.213Z,1028.7
2015-09-29T11:14:24.152Z,1028.7
2015-09-29T11:15:24.078Z,1028.7
2015-09-29T11:16:24.033Z,1028.8
2015-09-29T11:17:24.193Z,1028.7
2015-09-29T11:18:23.946Z,1028.7
2015-09-29T11:19:23.901Z,1028.7
2015-09-29T11:20:23.841Z,1028.7
2015-09-29T11:21:23.781Z,1028.8
2015-09-29T11:22:23.753Z,1028.8
2015-09-29T11:23:23.677Z,1028.8
2015-09-29T11:24:23.837Z,1028.6
2015-09-29T11:25:23.587Z,1028.7
2015-09-29T11:26:23.777Z,1028.5
2015-09-29T11:27:23.685Z,1028.5
2015-09-29T11:28:23.438Z,1028.6
2015-09-29T11:29:23.379Z,1028.6
2015-09-29T11:30:23.319Z,1028.7
2015-09-29T11:31:23.275Z,1028.7
2015-09-29T11:32:23.246Z,1028.8
2015-09-29T11:33:23.374Z,1028.8
2015-09-29T11:34:23.127Z,1028.9
2015-09-29T11:35:23.099Z,1028.8
2015-09-29T11:36:23.023Z,1028.9
2015-09-29T11:37:22.979Z,1028.8
2015-09-29T11:38:22.935Z,1028.8
2015-09-29T11:39:22.876Z,1028.6
2015-09-29T11:40:23.018Z,1028.6
2015-09-29T11:41:22.771Z,1028.8
2015-09-29T11:42:22.742Z,1028.6
2015-09-29T11:43:22.902Z,1028.8
2015-09-29T11:44:22.623Z,1028.8
2015-09-29T11:45:22.579Z,1028.7
2015-09-29T11:46:22.520Z,1028.8
2015-09-29T11:47:22.459Z,1028.8
2015-09-29T11:48:22.447Z,1028.7
2015-09-29T11:49:22.355Z,1028.7
2015-09-29T11:50:22.311Z,1028.6
2015-09-29T11:51:22.315Z,1028.7
2015-09-29T11:52:22.223Z,1028.7
2015-09-29T11:53:22.163Z,1028.7
2015-09-29T11:54:22.119Z,1028.6
2015-09-29T11:55:22.059Z,1028.6
2015-09-29T11:56:22.015Z,1028.6
2015-09-29T11:57:21.956Z,1028.5
2015-09-29T11:58:21.755Z,1028.6
2015-09-29T11:59:21.133Z,1028.5
2015-09-29T12:00:21.808Z,1028.6
2015-09-29T12:01:21.764Z,1028.6
2015-09-29T12:02:21.719Z,1028.7
2015-09-29T12:03:21.659Z,1028.6
2015-09-29T12:04:21.647Z,1028.4
2015-09-29T12:05:21.555Z,1028.3
2015-09-29T12:06:21.511Z,1028.5
2015-09-29T12:07:21.452Z,1028.4
2015-09-29T12:08:21.407Z,1028.6
2015-09-29T12:09:21.348Z,1028.7
2015-09-29T12:10:21.303Z,1028.5
2015-09-29T12:11:20.494Z,1028.4
2015-09-29T12:12:21.200Z,1028.6
2015-09-29T12:13:21.155Z,1028.5
2015-09-29T12:14:21.111Z,1028.6
2015-09-29T12:15:21.052Z,1028.5
2015-09-29T12:16:21.008Z,1028.5
2015-09-29T12:17:20.963Z,1028.5
2015-09-29T12:18:20.919Z,1028.5
2015-09-29T12:19:20.857Z,1028.7
2015-09-29T12:20:20.812Z,1028.6
2015-09-29T12:21:20.768Z,1028.4
2015-09-29T12:22:20.708Z,1028.5
2015-09-29T12:23:20.665Z,1028.5
2015-09-29T12:24:20.605Z,1028.5
2015-09-29T12:25:20.810Z,1028.4
2015-09-29T12:26:20.502Z,1028.4
2015-09-29T12:27:20.472Z,1028.5
2015-09-29T12:28:20.397Z,1028.6
2015-09-29T12:29:20.353Z,1028.4
2015-09-29T12:30:20.512Z,1028.3
2015-09-29T12:31:20.249Z,1028.4
2015-09-29T12:32:20.204Z,1028.4
2015-09-29T12:33:20.160Z,1028.3